sensor_id;sensor_type;location;lat;lon;timestamp;temperature;humidity
40374;DHT22;26079;45.958;12.492;2023-02-26T00:02:12;10.20;96.00
40374;DHT22;26079;45.958;12.492;2023-02-26T00:04:38;9.80;92.60
40374;DHT22;26079;45.958;12.492;2023-02-26T00:07:03;9.50;90.50
40374;DHT22;26079;45.958;12.492;2023-02-26T00:09:30;9.10;89.40
40374;DHT22;26079;45.958;12.492;2023-02-26T00:11:57;9.10;89.20
40374;DHT22;26079;45.958;12.492;2023-02-26T00:14:23;8.80;89.10
40374;DHT22;26079;45.958;12.492;2023-02-26T00:19:29;8.60;90.00
40374;DHT22;26079;45.958;12.492;2023-02-26T00:21:55;8.40;92.30
40374;DHT22;26079;45.958;12.492;2023-02-26T00:24:21;8.00;98.50
40374;DHT22;26079;45.958;12.492;2023-02-26T00:26:47;7.30;99.90
40374;DHT22;26079;45.958;12.492;2023-02-26T00:29:13;6.80;99.90
40374;DHT22;26079;45.958;12.492;2023-02-26T00:31:39;6.50;99.90
40374;DHT22;26079;45.958;12.492;2023-02-26T00:34:04;6.20;99.90
40374;DHT22;26079;45.958;12.492;2023-02-26T00:42:03;5.80;99.90
40374;DHT22;26079;45.958;12.492;2023-02-26T00:44:29;5.70;99.90
40374;DHT22;26079;45.958;12.492;2023-02-26T00:47:03;5.70;99.90
40374;DHT22;26079;45.958;12.492;2023-02-26T00:52:14;5.90;99.90
40374;DHT22;26079;45.958;12.492;2023-02-26T00:54:42;5.80;99.90
40374;DHT22;26079;45.958;12.492;2023-02-26T00:57:08;5.70;99.90
40374;DHT22;26079;45.958;12.492;2023-02-26T00:59:33;5.60;99.90
40374;DHT22;26079;45.958;12.492;2023-02-26T01:01:59;5.60;99.90
40374;DHT22;26079;45.958;12.492;2023-02-26T01:04:25;5.60;99.90
40374;DHT22;26079;45.958;12.492;2023-02-26T01:06:56;5.60;99.90
40374;DHT22;26079;45.958;12.492;2023-02-26T01:09:27;5.60;99.90
40374;DHT22;26079;45.958;12.492;2023-02-26T01:11:55;5.50;99.90
40374;DHT22;26079;45.958;12.492;2023-02-26T01:14:22;5.50;99.90
40374;DHT22;26079;45.958;12.492;2023-02-26T01:19:44;5.40;99.90
40374;DHT22;26079;45.958;12.492;2023-02-26T01:25:09;5.40;99.90
40374;DHT22;26079;45.958;12.492;2023-02-26T01:27:35;5.40;99.90
40374;DHT22;26079;45.958;12.492;2023-02-26T01:30:02;5.40;99.90
40374;DHT22;26079;45.958;12.492;2023-02-26T01:36:11;5.30;99.90
40374;DHT22;26079;45.958;12.492;2023-02-26T01:49:41;5.30;99.90
40374;DHT22;26079;45.958;12.492;2023-02-26T01:55:11;5.30;99.90
40374;DHT22;26079;45.958;12.492;2023-02-26T01:57:36;5.20;99.90
40374;DHT22;26079;45.958;12.492;2023-02-26T02:00:03;5.20;99.90
40374;DHT22;26079;45.958;12.492;2023-02-26T02:02:29;5.30;99.90
40374;DHT22;26079;45.958;12.492;2023-02-26T02:04:57;5.30;99.90
40374;DHT22;26079;45.958;12.492;2023-02-26T02:07:26;5.30;99.90
40374;DHT22;26079;45.958;12.492;2023-02-26T02:09:51;5.30;99.90
40374;DHT22;26079;45.958;12.492;2023-02-26T02:15:12;5.30;99.90
40374;DHT22;26079;45.958;12.492;2023-02-26T02:32:02;5.20;99.90
40374;DHT22;26079;45.958;12.492;2023-02-26T02:34:40;5.20;99.90
40374;DHT22;26079;45.958;12.492;2023-02-26T02:37:17;5.20;99.90
40374;DHT22;26079;45.958;12.492;2023-02-26T02:39:50;5.20;99.90
40374;DHT22;26079;45.958;12.492;2023-02-26T02:42:25;5.20;99.90
40374;DHT22;26079;45.958;12.492;2023-02-26T02:45:00;5.20;99.90
40374;DHT22;26079;45.958;12.492;2023-02-26T02:47:30;5.10;99.90
40374;DHT22;26079;45.958;12.492;2023-02-26T02:50:06;5.10;99.90
40374;DHT22;26079;45.958;12.492;2023-02-26T02:52:42;5.10;99.90
40374;DHT22;26079;45.958;12.492;2023-02-26T02:55:14;5.10;99.90
40374;DHT22;26079;45.958;12.492;2023-02-26T02:57:56;5.00;99.90
40374;DHT22;26079;45.958;12.492;2023-02-26T03:00:26;5.00;99.90
40374;DHT22;26079;45.958;12.492;2023-02-26T03:03:14;5.00;99.90
40374;DHT22;26079;45.958;12.492;2023-02-26T03:05:42;5.00;99.90
40374;DHT22;26079;45.958;12.492;2023-02-26T03:08:21;5.00;99.90
40374;DHT22;26079;45.958;12.492;2023-02-26T03:10:49;5.00;99.90
40374;DHT22;26079;45.958;12.492;2023-02-26T03:13:20;5.00;99.90
40374;DHT22;26079;45.958;12.492;2023-02-26T03:21:01;5.00;99.90
40374;DHT22;26079;45.958;12.492;2023-02-26T03:23:34;5.00;99.90
40374;DHT22;26079;45.958;12.492;2023-02-26T03:26:23;5.00;99.90
40374;DHT22;26079;45.958;12.492;2023-02-26T03:28:58;5.00;99.90
40374;DHT22;26079;45.958;12.492;2023-02-26T03:31:38;5.00;99.90
40374;DHT22;26079;45.958;12.492;2023-02-26T03:34:14;5.00;99.90
40374;DHT22;26079;45.958;12.492;2023-02-26T03:36:55;5.00;99.90
40374;DHT22;26079;45.958;12.492;2023-02-26T03:39:30;5.00;99.90
40374;DHT22;26079;45.958;12.492;2023-02-26T03:42:08;5.10;99.90
40374;DHT22;26079;45.958;12.492;2023-02-26T03:44:42;5.10;99.90
40374;DHT22;26079;45.958;12.492;2023-02-26T03:47:12;5.10;99.90
40374;DHT22;26079;45.958;12.492;2023-02-26T03:49:57;5.10;99.90
40374;DHT22;26079;45.958;12.492;2023-02-26T03:52:28;5.10;99.90
40374;DHT22;26079;45.958;12.492;2023-02-26T03:55:02;5.20;99.90
40374;DHT22;26079;45.958;12.492;2023-02-26T03:57:29;5.20;99.90
40374;DHT22;26079;45.958;12.492;2023-02-26T03:59:55;5.20;99.90
40374;DHT22;26079;45.958;12.492;2023-02-26T04:02:28;5.20;99.90
40374;DHT22;26079;45.958;12.492;2023-02-26T04:04:59;5.20;99.60
40374;DHT22;26079;45.958;12.492;2023-02-26T04:07:26;5.20;99.90
40374;DHT22;26079;45.958;12.492;2023-02-26T04:09:53;5.20;99.90
40374;DHT22;26079;45.958;12.492;2023-02-26T04:12:24;5.20;99.70
40374;DHT22;26079;45.958;12.492;2023-02-26T04:14:50;5.10;99.90
40374;DHT22;26079;45.958;12.492;2023-02-26T04:17:16;5.00;99.90
40374;DHT22;26079;45.958;12.492;2023-02-26T04:19:42;5.00;99.90
40374;DHT22;26079;45.958;12.492;2023-02-26T04:22:08;4.90;99.90
40374;DHT22;26079;45.958;12.492;2023-02-26T04:24:34;4.90;99.90
40374;DHT22;26079;45.958;12.492;2023-02-26T04:27:00;4.90;99.90
40374;DHT22;26079;45.958;12.492;2023-02-26T04:29:25;4.90;99.90
40374;DHT22;26079;45.958;12.492;2023-02-26T04:31:52;4.90;99.90
40374;DHT22;26079;45.958;12.492;2023-02-26T04:34:18;4.90;99.90
40374;DHT22;26079;45.958;12.492;2023-02-26T04:36:44;4.90;99.90
40374;DHT22;26079;45.958;12.492;2023-02-26T04:39:10;4.90;99.90
40374;DHT22;26079;45.958;12.492;2023-02-26T04:41:36;4.90;99.90
40374;DHT22;26079;45.958;12.492;2023-02-26T04:44:03;4.90;99.90
40374;DHT22;26079;45.958;12.492;2023-02-26T04:46:29;5.00;99.90
40374;DHT22;26079;45.958;12.492;2023-02-26T04:48:54;5.00;99.90
40374;DHT22;26079;45.958;12.492;2023-02-26T04:51:20;5.00;99.90
40374;DHT22;26079;45.958;12.492;2023-02-26T04:53:46;5.00;99.90
40374;DHT22;26079;45.958;12.492;2023-02-26T04:56:11;5.00;99.90
40374;DHT22;26079;45.958;12.492;2023-02-26T04:58:37;5.00;99.90
40374;DHT22;26079;45.958;12.492;2023-02-26T05:01:03;5.00;99.90
40374;DHT22;26079;45.958;12.492;2023-02-26T05:03:29;5.00;99.90
40374;DHT22;26079;45.958;12.492;2023-02-26T05:05:55;5.00;99.90
40374;DHT22;26079;45.958;12.492;2023-02-26T05:08:20;5.00;99.90
40374;DHT22;26079;45.958;12.492;2023-02-26T05:10:46;5.00;99.90
40374;DHT22;26079;45.958;12.492;2023-02-26T05:13:12;5.00;99.90
40374;DHT22;26079;45.958;12.492;2023-02-26T05:15:38;5.00;99.90
40374;DHT22;26079;45.958;12.492;2023-02-26T05:18:21;5.00;99.90
40374;DHT22;26079;45.958;12.492;2023-02-26T05:20:54;5.00;99.90
40374;DHT22;26079;45.958;12.492;2023-02-26T05:23:21;5.00;99.90
40374;DHT22;26079;45.958;12.492;2023-02-26T05:25:47;5.10;99.90
40374;DHT22;26079;45.958;12.492;2023-02-26T05:28:14;5.00;99.90
40374;DHT22;26079;45.958;12.492;2023-02-26T05:30:40;5.00;99.90
40374;DHT22;26079;45.958;12.492;2023-02-26T05:33:06;5.10;99.90
40374;DHT22;26079;45.958;12.492;2023-02-26T05:35:31;5.20;98.70
40374;DHT22;26079;45.958;12.492;2023-02-26T05:37:57;5.30;98.70
40374;DHT22;26079;45.958;12.492;2023-02-26T05:40:23;5.40;95.10
40374;DHT22;26079;45.958;12.492;2023-02-26T05:42:49;5.50;94.60
40374;DHT22;26079;45.958;12.492;2023-02-26T05:45:16;5.50;92.80
40374;DHT22;26079;45.958;12.492;2023-02-26T05:47:42;5.60;93.00
40374;DHT22;26079;45.958;12.492;2023-02-26T05:50:08;5.60;93.80
40374;DHT22;26079;45.958;12.492;2023-02-26T05:52:34;5.70;90.70
40374;DHT22;26079;45.958;12.492;2023-02-26T05:55:01;5.70;90.20
40374;DHT22;26079;45.958;12.492;2023-02-26T05:57:27;5.80;87.60
40374;DHT22;26079;45.958;12.492;2023-02-26T05:59:53;5.90;88.00
40374;DHT22;26079;45.958;12.492;2023-02-26T06:02:18;5.90;86.10
40374;DHT22;26079;45.958;12.492;2023-02-26T06:04:44;5.90;86.70
40374;DHT22;26079;45.958;12.492;2023-02-26T06:07:10;5.90;88.50
40374;DHT22;26079;45.958;12.492;2023-02-26T06:09:35;5.90;88.60
40374;DHT22;26079;45.958;12.492;2023-02-26T06:12:01;5.90;90.70
40374;DHT22;26079;45.958;12.492;2023-02-26T06:14:27;5.90;90.10
40374;DHT22;26079;45.958;12.492;2023-02-26T06:16:52;5.90;88.80
40374;DHT22;26079;45.958;12.492;2023-02-26T06:19:18;5.90;89.90
40374;DHT22;26079;45.958;12.492;2023-02-26T06:21:46;6.10;82.80
40374;DHT22;26079;45.958;12.492;2023-02-26T06:24:11;6.10;85.50
40374;DHT22;26079;45.958;12.492;2023-02-26T06:26:37;6.10;87.30
40374;DHT22;26079;45.958;12.492;2023-02-26T06:29:03;6.10;88.70
40374;DHT22;26079;45.958;12.492;2023-02-26T06:31:28;6.00;90.60
40374;DHT22;26079;45.958;12.492;2023-02-26T06:33:54;6.00;88.90
40374;DHT22;26079;45.958;12.492;2023-02-26T06:36:20;6.00;90.20
40374;DHT22;26079;45.958;12.492;2023-02-26T06:38:46;6.00;86.40
40374;DHT22;26079;45.958;12.492;2023-02-26T06:41:12;6.10;87.30
40374;DHT22;26079;45.958;12.492;2023-02-26T06:43:38;6.20;82.50
40374;DHT22;26079;45.958;12.492;2023-02-26T06:46:04;6.30;81.70
40374;DHT22;26079;45.958;12.492;2023-02-26T06:48:30;6.30;82.50
40374;DHT22;26079;45.958;12.492;2023-02-26T06:50:56;6.40;78.50
40374;DHT22;26079;45.958;12.492;2023-02-26T06:53:22;6.40;79.70
40374;DHT22;26079;45.958;12.492;2023-02-26T06:55:50;6.50;79.30
40374;DHT22;26079;45.958;12.492;2023-02-26T06:58:16;6.50;79.50
40374;DHT22;26079;45.958;12.492;2023-02-26T07:00:42;6.40;79.40
40374;DHT22;26079;45.958;12.492;2023-02-26T07:03:13;6.50;76.70
40374;DHT22;26079;45.958;12.492;2023-02-26T07:05:39;6.50;77.30
40374;DHT22;26079;45.958;12.492;2023-02-26T07:08:05;6.60;76.50
40374;DHT22;26079;45.958;12.492;2023-02-26T07:10:35;6.70;74.80
40374;DHT22;26079;45.958;12.492;2023-02-26T07:13:01;6.70;74.70
40374;DHT22;26079;45.958;12.492;2023-02-26T07:15:27;6.80;75.70
40374;DHT22;26079;45.958;12.492;2023-02-26T07:17:53;6.80;75.60
40374;DHT22;26079;45.958;12.492;2023-02-26T07:20:19;6.80;75.90
40374;DHT22;26079;45.958;12.492;2023-02-26T07:22:45;6.80;75.00
40374;DHT22;26079;45.958;12.492;2023-02-26T07:25:11;6.90;74.80
40374;DHT22;26079;45.958;12.492;2023-02-26T07:27:37;6.90;75.20
40374;DHT22;26079;45.958;12.492;2023-02-26T07:30:05;6.90;75.70
40374;DHT22;26079;45.958;12.492;2023-02-26T07:32:31;6.90;76.10
40374;DHT22;26079;45.958;12.492;2023-02-26T07:34:57;7.00;75.00
40374;DHT22;26079;45.958;12.492;2023-02-26T07:37:23;7.00;72.80
40374;DHT22;26079;45.958;12.492;2023-02-26T07:39:49;7.00;72.60
40374;DHT22;26079;45.958;12.492;2023-02-26T07:42:15;7.10;71.80
40374;DHT22;26079;45.958;12.492;2023-02-26T07:44:41;7.20;72.20
40374;DHT22;26079;45.958;12.492;2023-02-26T07:47:07;7.20;71.30
40374;DHT22;26079;45.958;12.492;2023-02-26T07:49:33;7.30;71.70
40374;DHT22;26079;45.958;12.492;2023-02-26T07:51:59;7.30;70.40
40374;DHT22;26079;45.958;12.492;2023-02-26T07:54:25;7.30;71.90
40374;DHT22;26079;45.958;12.492;2023-02-26T07:56:51;7.30;73.80
40374;DHT22;26079;45.958;12.492;2023-02-26T07:59:17;7.30;71.80
40374;DHT22;26079;45.958;12.492;2023-02-26T08:01:42;7.30;72.30
40374;DHT22;26079;45.958;12.492;2023-02-26T08:04:08;7.30;70.40
40374;DHT22;26079;45.958;12.492;2023-02-26T08:08:09;7.40;68.60
40374;DHT22;26079;45.958;12.492;2023-02-26T08:10:35;7.40;69.10
40374;DHT22;26079;45.958;12.492;2023-02-26T08:13:01;7.40;67.30
40374;DHT22;26079;45.958;12.492;2023-02-26T08:15:52;7.50;67.80
40374;DHT22;26079;45.958;12.492;2023-02-26T08:18:18;7.50;69.50
40374;DHT22;26079;45.958;12.492;2023-02-26T08:20:45;7.60;67.30
40374;DHT22;26079;45.958;12.492;2023-02-26T08:23:11;7.60;66.20
40374;DHT22;26079;45.958;12.492;2023-02-26T08:25:37;7.70;64.90
40374;DHT22;26079;45.958;12.492;2023-02-26T08:28:03;7.80;64.70
40374;DHT22;26079;45.958;12.492;2023-02-26T08:30:29;7.80;64.10
40374;DHT22;26079;45.958;12.492;2023-02-26T08:32:55;7.90;64.60
40374;DHT22;26079;45.958;12.492;2023-02-26T08:35:21;7.90;64.50
40374;DHT22;26079;45.958;12.492;2023-02-26T08:37:46;7.90;64.20
40374;DHT22;26079;45.958;12.492;2023-02-26T08:40:13;8.00;64.70
40374;DHT22;26079;45.958;12.492;2023-02-26T08:42:39;8.00;63.80
40374;DHT22;26079;45.958;12.492;2023-02-26T08:45:05;8.00;63.60
40374;DHT22;26079;45.958;12.492;2023-02-26T08:47:31;8.10;65.10
40374;DHT22;26079;45.958;12.492;2023-02-26T08:49:57;8.10;64.70
40374;DHT22;26079;45.958;12.492;2023-02-26T08:52:23;8.20;64.50
40374;DHT22;26079;45.958;12.492;2023-02-26T08:54:49;8.20;62.00
40374;DHT22;26079;45.958;12.492;2023-02-26T08:57:15;8.20;60.50
40374;DHT22;26079;45.958;12.492;2023-02-26T08:59:41;8.10;59.40
40374;DHT22;26079;45.958;12.492;2023-02-26T09:02:08;8.10;60.90
40374;DHT22;26079;45.958;12.492;2023-02-26T09:04:34;8.20;62.40
40374;DHT22;26079;45.958;12.492;2023-02-26T09:07:00;8.20;61.20
40374;DHT22;26079;45.958;12.492;2023-02-26T09:09:25;8.30;59.80
40374;DHT22;26079;45.958;12.492;2023-02-26T09:11:51;8.30;57.20
40374;DHT22;26079;45.958;12.492;2023-02-26T09:14:17;8.30;56.40
40374;DHT22;26079;45.958;12.492;2023-02-26T09:16:45;8.40;57.90
40374;DHT22;26079;45.958;12.492;2023-02-26T09:19:11;8.40;59.80
40374;DHT22;26079;45.958;12.492;2023-02-26T09:21:37;8.40;57.70
40374;DHT22;26079;45.958;12.492;2023-02-26T09:24:03;8.40;57.50
40374;DHT22;26079;45.958;12.492;2023-02-26T09:26:29;8.50;56.40
40374;DHT22;26079;45.958;12.492;2023-02-26T09:28:54;8.50;57.40
40374;DHT22;26079;45.958;12.492;2023-02-26T09:31:20;8.60;60.70
40374;DHT22;26079;45.958;12.492;2023-02-26T09:33:46;8.60;55.30
40374;DHT22;26079;45.958;12.492;2023-02-26T09:36:11;8.60;56.10
40374;DHT22;26079;45.958;12.492;2023-02-26T09:38:37;8.50;56.00
40374;DHT22;26079;45.958;12.492;2023-02-26T09:41:09;8.50;55.80
40374;DHT22;26079;45.958;12.492;2023-02-26T09:46:59;8.60;56.50
40374;DHT22;26079;45.958;12.492;2023-02-26T09:54:52;8.60;55.70
40374;DHT22;26079;45.958;12.492;2023-02-26T09:59:51;8.60;54.10
40374;DHT22;26079;45.958;12.492;2023-02-26T10:02:23;8.60;54.00
40374;DHT22;26079;45.958;12.492;2023-02-26T10:08:05;8.60;54.50
40374;DHT22;26079;45.958;12.492;2023-02-26T10:16:17;8.70;54.80
40374;DHT22;26079;45.958;12.492;2023-02-26T10:18:48;8.60;54.50
40374;DHT22;26079;45.958;12.492;2023-02-26T10:24:17;8.60;55.70
40374;DHT22;26079;45.958;12.492;2023-02-26T10:26:56;8.60;54.80
40374;DHT22;26079;45.958;12.492;2023-02-26T10:29:34;8.60;54.50
40374;DHT22;26079;45.958;12.492;2023-02-26T10:32:34;8.70;55.30
40374;DHT22;26079;45.958;12.492;2023-02-26T10:35:11;8.70;54.00
40374;DHT22;26079;45.958;12.492;2023-02-26T10:37:57;8.80;53.70
40374;DHT22;26079;45.958;12.492;2023-02-26T10:40:29;8.90;53.60
40374;DHT22;26079;45.958;12.492;2023-02-26T10:42:59;8.80;53.60
40374;DHT22;26079;45.958;12.492;2023-02-26T10:50:39;8.80;53.70
40374;DHT22;26079;45.958;12.492;2023-02-26T10:53:11;8.80;51.00
40374;DHT22;26079;45.958;12.492;2023-02-26T10:56:02;8.80;53.00
40374;DHT22;26079;45.958;12.492;2023-02-26T10:58:29;8.80;52.90
40374;DHT22;26079;45.958;12.492;2023-02-26T11:00:56;8.70;51.70
